Time;durP1;ratioP1;P1;durP2;ratioP2;P2;SDS_P1;SDS_P2;PMS_P1;PMS_P2;Temp;Humidity;BMP_temperature;BMP_pressure;BME280_temperature;BME280_humidity;BME280_pressure;Samples;Min_cycle;Max_cycle;Signal;HPM_P1;HPM_P2
2021/04/06 00:02:00;;;;;;;1999.90;999.90;;;1.80;99.90;;;;;;5054543;28;20199;-68
2021/04/06 00:04:32;;;;;;;1999.90;999.90;;;1.90;99.90;;;;;;5055430;28;20167;-69
2021/04/06 00:07:02;;;;;;;1999.90;999.90;;;1.90;99.90;;;;;;5055190;28;20175;-66
2021/04/06 00:09:34;;;;;;;1999.90;999.90;;;1.90;99.90;;;;;;5055428;28;20171;-67
2021/04/06 00:12:03;;;;;;;1999.90;999.90;;;1.90;99.90;;;;;;5055165;28;20187;-67
2021/04/06 00:14:31;;;;;;;1999.90;999.90;;;2.00;99.90;;;;;;5055452;28;20175;-70
2021/04/06 00:17:00;;;;;;;1999.90;999.90;;;2.00;99.90;;;;;;5055394;28;20187;-69
2021/04/06 00:19:29;;;;;;;1999.90;999.90;;;2.00;99.90;;;;;;5055216;28;20199;-68
2021/04/06 00:21:58;;;;;;;1999.90;999.90;;;2.00;99.90;;;;;;5054961;28;20196;-68
2021/04/06 00:24:27;;;;;;;1999.90;999.90;;;2.00;99.90;;;;;;5055065;28;20184;-69
2021/04/06 00:27:03;;;;;;;1999.90;999.90;;;2.00;99.90;;;;;;5054919;28;20250;-69
2021/04/06 00:29:34;;;;;;;1999.90;999.90;;;2.10;99.90;;;;;;5055274;28;20171;-69
2021/04/06 00:32:01;;;;;;;1999.90;999.90;;;2.00;99.90;;;;;;5055415;28;20688;-70
2021/04/06 00:34:28;;;;;;;1999.90;999.90;;;2.10;99.90;;;;;;5054963;28;20171;-69
2021/04/06 00:36:56;;;;;;;1999.90;999.90;;;2.10;99.90;;;;;;5054435;28;20835;-68
2021/04/06 00:39:34;;;;;;;1999.90;999.90;;;2.10;99.90;;;;;;5054670;28;20179;-69
2021/04/06 00:42:07;;;;;;;1999.90;999.90;;;2.10;99.90;;;;;;5054869;28;20195;-67
2021/04/06 00:44:38;;;;;;;1999.90;999.90;;;2.10;99.90;;;;;;5054674;28;20226;-67
2021/04/06 00:47:04;;;;;;;1999.90;999.90;;;2.00;99.90;;;;;;5054486;28;20168;-68
2021/04/06 00:49:32;;;;;;;1999.90;999.90;;;2.10;99.90;;;;;;5054609;28;20560;-68
2021/04/06 00:51:58;;;;;;;1999.90;999.90;;;2.10;99.90;;;;;;5054553;28;20601;-68
2021/04/06 00:54:25;;;;;;;1999.90;999.90;;;2.10;99.90;;;;;;5054530;28;20183;-69
2021/04/06 00:56:57;;;;;;;1999.90;999.90;;;2.10;99.90;;;;;;5054064;28;20668;-69
2021/04/06 00:59:23;;;;;;;1999.90;999.90;;;2.10;99.90;;;;;;5054567;28;20199;-69
2021/04/06 01:02:02;;;;;;;1999.90;999.90;;;2.20;99.90;;;;;;5054316;28;20187;-69
2021/04/06 01:04:32;;;;;;;1999.90;999.90;;;2.20;99.90;;;;;;5055097;28;20747;-70
2021/04/06 01:07:02;;;;;;;1999.90;999.90;;;2.30;99.90;;;;;;5053946;28;20180;-71
2021/04/06 01:09:33;;;;;;;1999.90;999.90;;;2.30;99.90;;;;;;5054246;28;20191;-69
2021/04/06 01:12:01;;;;;;;1999.90;999.90;;;2.20;99.90;;;;;;5053310;28;20195;-68
2021/04/06 01:14:28;;;;;;;1999.90;999.90;;;2.20;99.90;;;;;;5053879;28;20178;-68
2021/04/06 01:16:55;;;;;;;1999.90;999.90;;;2.10;99.90;;;;;;5053707;28;20195;-69
2021/04/06 01:19:22;;;;;;;1999.90;999.90;;;2.10;99.90;;;;;;5054188;28;20164;-69
2021/04/06 01:21:48;;;;;;;1999.90;999.90;;;2.10;99.90;;;;;;5053994;28;20192;-69
2021/04/06 01:24:14;;;;;;;1999.90;999.90;;;2.10;99.90;;;;;;5053979;28;20581;-68
2021/04/06 01:26:40;;;;;;;1999.90;999.90;;;2.10;99.90;;;;;;5053626;28;20263;-68
2021/04/06 01:29:06;;;;;;;1999.90;999.90;;;2.10;99.90;;;;;;5053794;28;20203;-70
2021/04/06 01:31:33;;;;;;;1999.90;999.90;;;2.10;99.90;;;;;;5053771;28;20464;-67
2021/04/06 01:34:02;;;;;;;1999.90;999.90;;;2.10;99.90;;;;;;5053774;28;20167;-68
2021/04/06 01:36:28;;;;;;;1999.90;999.90;;;2.00;99.90;;;;;;5053295;28;20675;-68
2021/04/06 01:38:54;;;;;;;1999.90;999.90;;;2.00;99.90;;;;;;5053645;28;20176;-69
2021/04/06 01:41:20;;;;;;;1999.90;999.90;;;1.90;99.90;;;;;;5053789;28;20426;-68
2021/04/06 01:43:48;;;;;;;1999.90;999.90;;;1.90;99.90;;;;;;5053551;28;20402;-69
2021/04/06 01:46:18;;;;;;;1999.90;999.90;;;1.90;99.90;;;;;;5053213;28;20664;-69
2021/04/06 01:48:45;;;;;;;1999.90;999.90;;;1.90;99.90;;;;;;5053524;28;20171;-69
2021/04/06 01:51:19;;;;;;;1999.90;999.90;;;2.00;99.90;;;;;;5053604;28;20215;-69
2021/04/06 01:53:45;;;;;;;1999.90;999.90;;;2.00;99.90;;;;;;5054341;28;20171;-69
2021/04/06 01:56:14;;;;;;;1999.90;999.90;;;2.00;99.90;;;;;;5053414;28;20192;-69
2021/04/06 01:58:45;;;;;;;1999.90;999.90;;;2.00;99.90;;;;;;5053514;28;20733;-69
2021/04/06 02:04:00;;;;;;;1999.90;999.90;;;2.00;99.90;;;;;;5053349;28;20168;-67
2021/04/06 02:06:27;;;;;;;1999.90;999.90;;;1.90;99.90;;;;;;5052952;28;20172;-68
2021/04/06 02:08:55;;;;;;;1999.90;999.90;;;1.90;99.90;;;;;;5053024;28;20176;-69
2021/04/06 02:11:30;;;;;;;1999.90;999.90;;;1.90;99.90;;;;;;5052961;28;20214;-69
2021/04/06 02:14:09;;;;;;;1999.90;999.90;;;1.90;99.90;;;;;;5053018;28;20183;-69
2021/04/06 02:17:02;;;;;;;1999.90;999.90;;;1.90;99.90;;;;;;5052623;28;20184;-69
2021/04/06 02:19:29;;;;;;;1999.90;999.90;;;1.90;99.90;;;;;;5051630;28;20184;-71
2021/04/06 02:22:08;;;;;;;1999.90;999.90;;;2.00;99.90;;;;;;5053853;28;20221;-70
2021/04/06 02:24:41;;;;;;;1999.90;999.90;;;2.00;99.90;;;;;;5053604;28;20164;-69
2021/04/06 02:27:08;;;;;;;1999.90;999.90;;;2.00;99.90;;;;;;5052748;28;20247;-68
2021/04/06 02:29:54;;;;;;;1999.90;999.90;;;1.90;99.90;;;;;;5052628;28;20267;-69
2021/04/06 02:32:22;;;;;;;1999.90;999.90;;;1.80;99.90;;;;;;5052476;28;20218;-69
2021/04/06 02:34:56;;;;;;;1999.90;999.90;;;1.90;99.90;;;;;;5052420;28;20180;-68
2021/04/06 02:37:30;;;;;;;1999.90;999.90;;;1.80;99.90;;;;;;5052567;28;20199;-70
2021/04/06 02:39:58;;;;;;;1999.90;999.90;;;1.80;99.90;;;;;;5052419;28;20209;-69
2021/04/06 02:42:35;;;;;;;1999.90;999.90;;;1.80;99.90;;;;;;5052374;28;20649;-68
2021/04/06 02:45:10;;;;;;;1999.90;999.90;;;1.80;99.90;;;;;;5052200;28;20216;-69
2021/04/06 02:47:41;;;;;;;1999.90;999.90;;;1.80;99.90;;;;;;5052322;28;20240;-69
2021/04/06 02:50:13;;;;;;;1999.90;999.90;;;1.80;99.90;;;;;;5052388;28;20302;-67
2021/04/06 02:52:39;;;;;;;1999.90;999.90;;;1.80;99.90;;;;;;5052321;28;20656;-67
2021/04/06 02:55:10;;;;;;;1999.90;999.90;;;1.80;99.90;;;;;;5051939;28;20211;-68
2021/04/06 02:57:42;;;;;;;1999.90;999.90;;;1.80;99.90;;;;;;5052355;28;20207;-68
2021/04/06 03:00:09;;;;;;;1999.90;999.90;;;1.80;99.90;;;;;;5052171;28;20657;-68
2021/04/06 03:02:39;;;;;;;1999.90;999.90;;;1.80;99.90;;;;;;5051925;28;20199;-67
2021/04/06 03:05:05;;;;;;;1999.90;999.90;;;1.90;99.90;;;;;;5051698;28;20186;-67
2021/04/06 03:07:31;;;;;;;1999.90;999.90;;;1.90;99.90;;;;;;5052100;28;20176;-67
2021/04/06 03:10:01;;;;;;;1999.90;999.90;;;1.80;99.90;;;;;;5052039;28;20659;-67
2021/04/06 03:12:31;;;;;;;1999.90;999.90;;;1.80;99.90;;;;;;5051963;28;20184;-67
2021/04/06 03:14:59;;;;;;;1999.90;999.90;;;1.80;99.90;;;;;;5051664;28;20629;-67
2021/04/06 03:17:26;;;;;;;1999.90;999.90;;;1.80;99.90;;;;;;5051863;28;20203;-69
2021/04/06 03:19:56;;;;;;;1999.90;999.90;;;1.80;99.90;;;;;;5052444;28;20268;-69
2021/04/06 03:22:25;;;;;;;1999.90;999.90;;;1.90;99.90;;;;;;5052582;28;20245;-70
2021/04/06 03:24:51;;;;;;;1999.90;999.90;;;1.90;99.90;;;;;;5051822;28;20194;-68
2021/04/06 03:27:27;;;;;;;1999.90;999.90;;;2.00;99.90;;;;;;5052101;28;20183;-67
2021/04/06 03:29:52;;;;;;;1999.90;999.90;;;1.90;99.90;;;;;;5051861;28;20795;-67
2021/04/06 03:32:18;;;;;;;1999.90;999.90;;;1.90;99.90;;;;;;5093177;22;20250;-74
2021/04/06 03:34:44;;;;;;;1999.90;999.90;;;1.80;99.90;;;;;;5051720;28;20596;-73
2021/04/06 03:37:10;;;;;;;1999.90;999.90;;;1.70;99.90;;;;;;5054984;28;20552;-73
2021/04/06 03:39:36;;;;;;;1999.90;999.90;;;1.60;99.90;;;;;;5055967;28;20167;-73
2021/04/06 03:42:02;;;;;;;1999.90;999.90;;;1.70;99.90;;;;;;5055737;28;20191;-73
2021/04/06 03:44:30;;;;;;;1999.90;999.90;;;1.70;99.90;;;;;;5055678;28;20251;-73
2021/04/06 03:47:01;;;;;;;1999.90;999.90;;;1.70;99.90;;;;;;5055519;28;20706;-74
2021/04/06 03:49:28;;;;;;;1999.90;999.90;;;1.70;99.90;;;;;;5055738;28;20245;-74
2021/04/06 03:52:16;;;;;;;1999.90;999.90;;;1.70;99.90;;;;;;5055725;28;20559;-74
2021/04/06 03:54:50;;;;;;;1999.90;999.90;;;1.70;99.90;;;;;;5055659;28;20175;-71
2021/04/06 03:57:30;;;;;;;1999.90;999.90;;;1.70;99.90;;;;;;5055499;28;20202;-73
2021/04/06 03:59:56;;;;;;;1999.90;999.90;;;1.60;99.90;;;;;;5054531;28;20187;-73
2021/04/06 04:02:23;;;;;;;1999.90;999.90;;;1.60;99.90;;;;;;5054141;28;20199;-73
2021/04/06 04:04:51;;;;;;;1999.90;999.90;;;1.60;99.90;;;;;;5055138;28;20215;-74
2021/04/06 04:07:16;;;;;;;1999.90;999.90;;;1.60;99.90;;;;;;5055447;28;20536;-74
2021/04/06 04:09:42;;;;;;;1999.90;999.90;;;1.50;99.90;;;;;;5055288;28;20174;-75
2021/04/06 04:12:08;;;;;;;1999.90;999.90;;;1.40;99.90;;;;;;5055245;28;20562;-74
2021/04/06 04:14:33;;;;;;;1999.90;999.90;;;1.40;99.90;;;;;;5055542;28;20177;-74
2021/04/06 04:16:59;;;;;;;1999.90;999.90;;;1.30;99.90;;;;;;5053575;28;20278;-74
2021/04/06 04:19:26;;;;;;;1999.90;999.90;;;1.30;99.90;;;;;;5055134;28;20629;-74
2021/04/06 04:21:52;;;;;;;1999.90;999.90;;;1.20;99.90;;;;;;5055058;28;20187;-74
2021/04/06 04:24:17;;;;;;;1999.90;999.90;;;1.30;99.90;;;;;;5055059;28;20213;-73
2021/04/06 04:26:43;;;;;;;1999.90;999.90;;;1.20;99.90;;;;;;5054836;28;20199;-74
2021/04/06 04:29:09;;;;;;;1999.90;999.90;;;1.20;99.90;;;;;;5055009;28;20250;-73
2021/04/06 04:31:34;;;;;;;1999.90;999.90;;;1.20;99.90;;;;;;5054788;28;20231;-74
2021/04/06 04:34:00;;;;;;;1999.90;999.90;;;1.20;99.90;;;;;;5054921;28;20627;-74
2021/04/06 04:36:25;;;;;;;1999.90;999.90;;;1.20;99.90;;;;;;5054534;28;20198;-73
2021/04/06 04:38:51;;;;;;;1999.90;999.90;;;1.10;99.90;;;;;;5054808;28;20250;-73
2021/04/06 04:41:16;;;;;;;1999.90;999.90;;;1.10;99.90;;;;;;5054695;28;20229;-73
2021/04/06 04:43:42;;;;;;;1999.90;999.90;;;1.20;99.90;;;;;;5054760;28;20252;-74
2021/04/06 04:46:08;;;;;;;1999.90;999.90;;;1.10;99.90;;;;;;5054290;28;20172;-74
2021/04/06 04:48:34;;;;;;;1999.90;999.90;;;1.10;99.90;;;;;;5054594;28;20171;-74
2021/04/06 04:50:59;;;;;;;1999.90;999.90;;;1.20;99.90;;;;;;5054597;28;20571;-74
2021/04/06 04:53:25;;;;;;;1999.90;999.90;;;1.20;99.90;;;;;;5054504;28;20211;-74
2021/04/06 04:55:51;;;;;;;1999.90;999.90;;;1.20;99.90;;;;;;5054220;28;20168;-74
2021/04/06 04:58:16;;;;;;;1999.90;999.90;;;1.20;99.90;;;;;;5054535;28;20535;-73
2021/04/06 05:00:42;;;;;;;1999.90;999.90;;;1.20;99.90;;;;;;5054696;28;20494;-74
2021/04/06 05:03:08;;;;;;;1999.90;999.90;;;1.30;99.90;;;;;;5054369;28;20178;-74
2021/04/06 05:05:33;;;;;;;1999.90;999.90;;;1.30;99.90;;;;;;5054160;28;20583;-73
2021/04/06 05:07:59;;;;;;;1999.90;999.90;;;1.40;99.90;;;;;;5054242;28;20172;-74
2021/04/06 05:10:25;;;;;;;1999.90;999.90;;;1.40;99.90;;;;;;5052959;28;20172;-74
2021/04/06 05:12:51;;;;;;;1999.90;999.90;;;1.50;99.90;;;;;;5054188;28;20430;-73
2021/04/06 05:15:16;;;;;;;1999.90;999.90;;;1.50;99.90;;;;;;5053824;28;20172;-74
2021/04/06 05:17:42;;;;;;;1999.90;999.90;;;1.60;99.90;;;;;;5054074;28;20195;-74
2021/04/06 05:20:09;;;;;;;1999.90;999.90;;;1.60;99.90;;;;;;5054119;28;20407;-74
2021/04/06 05:22:36;;;;;;;1999.90;999.90;;;1.50;99.90;;;;;;5053899;28;20187;-74
2021/04/06 05:25:03;;;;;;;1999.90;999.90;;;1.60;99.90;;;;;;5053809;28;20872;-74
2021/04/06 05:27:28;;;;;;;1999.90;999.90;;;1.60;99.90;;;;;;5053822;28;20183;-74
2021/04/06 05:29:54;;;;;;;1999.90;999.90;;;1.60;99.90;;;;;;5053897;28;20175;-72
2021/04/06 05:32:20;;;;;;;1999.90;999.90;;;1.50;99.90;;;;;;5053736;28;20272;-74
2021/04/06 05:34:45;;;;;;;1999.90;999.90;;;1.50;99.90;;;;;;5053661;28;20521;-74
2021/04/06 05:37:11;;;;;;;1999.90;999.90;;;1.40;99.90;;;;;;5053560;28;20195;-74
2021/04/06 05:39:37;;;;;;;1999.90;999.90;;;1.50;99.90;;;;;;5053835;28;20160;-74
2021/04/06 05:42:02;;;;;;;1999.90;999.90;;;1.50;99.90;;;;;;5053560;28;20226;-74
2021/04/06 05:44:28;;;;;;;1999.90;999.90;;;1.50;99.90;;;;;;5053522;28;20543;-74
2021/04/06 05:47:02;;;;;;;1999.90;999.90;;;1.50;99.90;;;;;;5053316;28;20172;-74
2021/04/06 05:49:31;;;;;;;1999.90;999.90;;;1.50;99.90;;;;;;5053526;28;20402;-74
2021/04/06 05:51:57;;;;;;;1999.90;999.90;;;1.40;99.90;;;;;;5053500;28;20216;-73
2021/04/06 05:54:24;;;;;;;1999.90;999.90;;;1.40;99.90;;;;;;5053403;28;20164;-73
2021/04/06 05:56:49;;;;;;;1999.90;999.90;;;1.40;99.90;;;;;;5052927;28;20711;-73
2021/04/06 05:59:15;;;;;;;1999.90;999.90;;;1.40;99.90;;;;;;5052708;28;20203;-74
2021/04/06 06:01:43;;;;;;;1999.90;999.90;;;1.50;99.90;;;;;;5053216;28;20196;-74
2021/04/06 06:04:10;;;;;;;1999.90;999.90;;;1.50;99.90;;;;;;5053170;28;20214;-74
2021/04/06 06:06:36;;;;;;;1999.90;999.90;;;1.50;99.90;;;;;;5052857;28;20183;-74
2021/04/06 06:09:04;;;;;;;1999.90;999.90;;;1.60;99.90;;;;;;5053160;28;20171;-74
2021/04/06 06:11:30;;;;;;;1999.90;999.90;;;1.70;99.90;;;;;;5053092;28;20183;-74
2021/04/06 06:13:56;;;;;;;1999.90;999.90;;;1.70;99.90;;;;;;5052987;28;20200;-74
2021/04/06 06:16:25;;;;;;;1999.90;999.90;;;1.80;99.90;;;;;;5052615;28;20203;-74
2021/04/06 06:18:52;;;;;;;1999.90;999.90;;;1.80;99.90;;;;;;5051668;28;20182;-74
2021/04/06 06:21:18;;;;;;;1999.90;999.90;;;1.80;99.90;;;;;;5052701;28;20279;-74
2021/04/06 06:23:43;;;;;;;1999.90;999.90;;;1.80;99.90;;;;;;5052836;28;20246;-73
2021/04/06 06:26:09;;;;;;;1999.90;999.90;;;1.80;99.90;;;;;;5052598;28;20402;-73
2021/04/06 06:28:36;;;;;;;1999.90;999.90;;;1.90;99.90;;;;;;5052724;28;20199;-74
2021/04/06 06:31:04;;;;;;;1999.90;999.90;;;1.80;99.90;;;;;;5052585;28;20226;-74
2021/04/06 06:33:35;;;;;;;1999.90;999.90;;;1.90;99.90;;;;;;5052631;28;20172;-74
2021/04/06 06:36:11;;;;;;;1999.90;999.90;;;1.90;99.90;;;;;;5052321;28;20218;-74
2021/04/06 06:38:42;;;;;;;1999.90;999.90;;;1.90;99.90;;;;;;5052542;28;20649;-74
2021/04/06 06:41:12;;;;;;;1999.90;999.90;;;1.90;99.90;;;;;;5052536;28;20240;-74
2021/04/06 06:43:43;;;;;;;1999.90;999.90;;;2.00;99.90;;;;;;5052318;28;20171;-73
2021/04/06 06:46:19;;;;;;;1999.90;999.90;;;2.00;99.90;;;;;;5052243;28;20172;-73
2021/04/06 06:48:52;;;;;;;1999.90;999.90;;;2.10;99.90;;;;;;5052819;28;20232;-74
2021/04/06 06:51:18;;;;;;;1999.90;999.90;;;2.20;99.90;;;;;;5052511;28;20328;-74
2021/04/06 06:53:44;;;;;;;1999.90;999.90;;;2.20;99.90;;;;;;5052454;28;20647;-75
2021/04/06 06:56:11;;;;;;;1999.90;999.90;;;2.30;99.90;;;;;;5051941;28;20227;-75
2021/04/06 06:58:42;;;;;;;1999.90;999.90;;;2.30;99.90;;;;;;5052390;28;20629;-74
2021/04/06 07:01:28;;;;;;;1999.90;999.90;;;2.50;99.90;;;;;;5052285;28;20563;-74
2021/04/06 07:04:08;;;;;;;1999.90;999.90;;;2.60;99.90;;;;;;5052146;28;20176;-74
2021/04/06 07:06:36;;;;;;;1999.90;999.90;;;2.50;99.90;;;;;;5051837;28;20649;-74
2021/04/06 07:09:27;;;;;;;1999.90;999.90;;;2.50;99.90;;;;;;5052105;28;20160;-75
2021/04/06 07:12:00;;;;;;;1999.90;999.90;;;2.40;99.90;;;;;;5051726;28;20664;-73
2021/04/06 07:14:27;;;;;;;1999.90;999.90;;;2.40;99.90;;;;;;5052026;28;20203;-75
2021/04/06 07:16:54;;;;;;;1999.90;999.90;;;2.40;99.90;;;;;;5051758;28;20200;-74
2021/04/06 07:19:20;;;;;;;1999.90;999.90;;;2.50;99.90;;;;;;5052020;28;20172;-74
2021/04/06 07:21:47;;;;;;;1999.90;999.90;;;2.50;99.90;;;;;;5051852;28;20278;-73
2021/04/06 07:24:21;;;;;;;1999.90;999.90;;;2.50;99.90;;;;;;5052266;28;20666;-74
2021/04/06 07:26:48;;;;;;;1999.90;999.90;;;2.50;99.90;;;;;;5051598;28;20176;-75
2021/04/06 07:29:14;;;;;;;1999.90;999.90;;;2.60;99.90;;;;;;5050589;28;20564;-75
2021/04/06 07:31:41;;;;;;;1999.90;999.90;;;2.70;99.90;;;;;;5051550;28;20274;-73
2021/04/06 07:34:11;;;;;;;1999.90;999.90;;;2.90;99.90;;;;;;5051885;28;20664;-74
2021/04/06 07:36:37;;;;;;;1999.90;999.90;;;3.00;99.90;;;;;;5051378;28;20207;-73
2021/04/06 07:39:08;;;;;;;1999.90;999.90;;;3.10;99.90;;;;;;5051750;28;20164;-74
2021/04/06 07:41:40;;;;;;;1999.90;999.90;;;3.20;99.90;;;;;;5051550;28;20622;-74
2021/04/06 07:44:06;;;;;;;1999.90;999.90;;;3.20;99.90;;;;;;5051727;28;20160;-74
2021/04/06 07:46:35;;;;;;;1999.90;999.90;;;3.30;99.90;;;;;;5051269;28;20172;-75
2021/04/06 07:49:03;;;;;;;1999.90;999.90;;;3.30;99.90;;;;;;5051450;28;20168;-75
2021/04/06 07:51:31;;;;;;;1999.90;999.90;;;3.20;99.90;;;;;;5051501;28;20207;-75
2021/04/06 07:54:04;;;;;;;1999.90;999.90;;;3.20;99.90;;;;;;5051643;28;20195;-75
2021/04/06 07:56:49;;;;;;;1999.90;999.90;;;3.30;99.90;;;;;;5051152;28;20214;-76
2021/04/06 07:59:20;;;;;;;1999.90;999.90;;;3.50;99.90;;;;;;5051600;28;20194;-75
2021/04/06 08:02:07;;;;;;;1999.90;999.90;;;3.50;99.90;;;;;;5051463;28;20418;-74
2021/04/06 08:04:38;;;;;;;1999.90;999.90;;;3.50;99.90;;;;;;5051381;28;20196;-74
2021/04/06 08:07:19;;;;;;;1999.90;999.90;;;3.30;99.90;;;;;;5051362;28;20163;-74
2021/04/06 08:09:46;;;;;;;1999.90;999.90;;;3.30;99.90;;;;;;5051524;28;20182;-75
2021/04/06 08:12:25;;;;;;;1999.90;999.90;;;3.30;99.90;;;;;;5051370;28;20219;-74
2021/04/06 08:14:55;;;;;;;1999.90;999.90;;;3.30;99.90;;;;;;5051206;28;20673;-75
2021/04/06 08:17:24;;;;;;;1999.90;999.90;;;3.20;99.90;;;;;;5051293;28;20203;-75
2021/04/06 08:19:53;;;;;;;1999.90;999.90;;;3.10;99.90;;;;;;5051373;28;20579;-75
2021/04/06 08:22:21;;;;;;;1999.90;999.90;;;3.10;99.90;;;;;;5053009;28;20188;-74
2021/04/06 08:24:47;;;;;;;1999.90;999.90;;;3.10;99.90;;;;;;5054819;28;20172;-75
2021/04/06 08:27:34;;;;;;;1999.90;999.90;;;3.40;99.90;;;;;;5055054;28;20175;-75
2021/04/06 08:30:18;;;;;;;1999.90;999.90;;;3.60;99.90;;;;;;5054946;28;20408;-75
2021/04/06 08:32:56;;;;;;;1999.90;999.90;;;3.60;99.90;;;;;;5054809;28;20203;-75
2021/04/06 08:35:52;;;;;;;1999.90;999.90;;;3.40;99.90;;;;;;5048094;28;20175;-72
2021/04/06 08:38:24;;;;;;;1999.90;999.90;;;3.50;99.90;;;;;;5049029;28;20184;-72
2021/04/06 08:41:00;;;;;;;1999.90;999.90;;;3.40;99.90;;;;;;5052125;28;20184;-73
2021/04/06 08:43:27;;;;;;;1999.90;999.90;;;3.50;99.90;;;;;;5052455;28;20175;-72
2021/04/06 08:46:07;;;;;;;1999.90;999.90;;;3.50;99.90;;;;;;5052601;28;20473;-72
2021/04/06 08:48:45;;;;;;;1999.90;999.90;;;3.40;99.90;;;;;;5052589;28;20674;-74
2021/04/06 08:51:23;;;;;;;1999.90;999.90;;;3.40;99.90;;;;;;5052732;28;20602;-72
2021/04/06 08:53:53;;;;;;;1999.90;999.90;;;3.40;99.90;;;;;;5052930;28;20160;-75
2021/04/06 08:56:24;;;;;;;1999.90;999.90;;;3.60;99.90;;;;;;5051880;28;20199;-76
2021/04/06 08:58:50;;;;;;;1999.90;999.90;;;3.80;99.90;;;;;;5052676;28;20202;-75
2021/04/06 09:01:16;;;;;;;1999.90;999.90;;;3.80;99.90;;;;;;5052516;28;20198;-74
2021/04/06 09:03:41;;;;;;;1999.90;999.90;;;3.80;99.90;;;;;;5052217;28;20797;-71
2021/04/06 09:06:12;;;;;;;1999.90;999.90;;;3.80;99.90;;;;;;5051718;28;20540;-72
2021/04/06 09:08:53;;;;;;;1999.90;999.90;;;3.80;99.90;;;;;;5052426;28;20169;-73
2021/04/06 09:11:22;;;;;;;1999.90;999.90;;;3.90;99.90;;;;;;5051796;28;20898;-76
2021/04/06 09:13:49;;;;;;;1999.90;999.90;;;4.10;99.90;;;;;;5052276;28;20935;-72
2021/04/06 09:16:22;;;;;;;1999.90;999.90;;;4.10;99.90;;;;;;5051620;28;20446;-73
2021/04/06 09:18:56;;;;;;;1999.90;999.90;;;4.00;99.90;;;;;;5051534;28;20491;-73
2021/04/06 09:21:25;;;;;;;1999.90;999.90;;;3.70;99.90;;;;;;5050931;28;20188;-72
2021/04/06 09:23:53;;;;;;;1999.90;999.90;;;3.80;99.90;;;;;;5052135;28;20163;-74
2021/04/06 09:26:19;;;;;;;1999.90;999.90;;;4.00;99.90;;;;;;5051220;28;20409;-73
2021/04/06 09:28:45;;;;;;;1999.90;999.90;;;4.00;99.90;;;;;;5051906;28;20460;-73
2021/04/06 09:31:12;;;;;;;1999.90;999.90;;;4.00;99.90;;;;;;5050940;28;20869;-73
2021/04/06 09:33:38;;;;;;;1999.90;999.90;;;4.00;99.90;;;;;;5051167;28;20410;-73
2021/04/06 09:36:05;;;;;;;1999.90;999.90;;;4.00;99.90;;;;;;5051929;28;21106;-73
2021/04/06 09:38:36;;;;;;;1999.90;999.90;;;4.00;99.90;;;;;;5051967;28;20410;-73
2021/04/06 09:41:01;;;;;;;1999.90;999.90;;;4.00;99.90;;;;;;5051991;28;21007;-73
2021/04/06 09:43:27;;;;;;;1999.90;999.90;;;4.10;99.90;;;;;;5052072;28;20485;-73
2021/04/06 09:45:53;;;;;;;1999.90;999.90;;;4.20;99.90;;;;;;5051885;28;20489;-73
2021/04/06 09:48:20;;;;;;;1999.90;999.90;;;4.20;99.90;;;;;;5051454;28;20182;-73
2021/04/06 09:51:05;;;;;;;1999.90;999.90;;;4.30;99.90;;;;;;5051962;28;20179;-73
2021/04/06 09:53:35;;;;;;;1999.90;999.90;;;4.50;99.90;;;;;;5052024;28;20394;-74
2021/04/06 09:56:00;;;;;;;1999.90;999.90;;;4.50;99.90;;;;;;5050809;28;20760;-75
2021/04/06 09:58:28;;;;;;;1999.90;999.90;;;4.50;99.90;;;;;;5051319;28;20406;-74
2021/04/06 10:00:53;;;;;;;1999.90;999.90;;;4.60;99.90;;;;;;5051422;28;20422;-72
2021/04/06 10:03:25;;;;;;;1999.90;999.90;;;4.70;99.90;;;;;;5050977;28;20488;-75
2021/04/06 10:06:04;;;;;;;1999.90;999.90;;;4.90;99.90;;;;;;5049052;28;20172;-72
2021/04/06 10:08:31;;;;;;;1999.90;999.90;;;5.00;99.90;;;;;;5049250;28;20408;-75
2021/04/06 10:10:57;;;;;;;1999.90;999.90;;;4.80;99.90;;;;;;5050456;28;20441;-73
2021/04/06 10:13:23;;;;;;;1999.90;999.90;;;4.70;99.90;;;;;;5048306;28;20472;-73
2021/04/06 10:15:49;;;;;;;1999.90;999.90;;;4.70;99.90;;;;;;5050547;28;20403;-75
2021/04/06 10:18:16;;;;;;;1999.90;999.90;;;4.50;99.90;;;;;;5050610;28;20460;-75
2021/04/06 10:20:43;;;;;;;1999.90;999.90;;;4.40;99.90;;;;;;5051117;28;20545;-76
2021/04/06 10:23:09;;;;;;;1999.90;999.90;;;4.30;99.90;;;;;;5050670;28;20406;-73
2021/04/06 10:25:42;;;;;;;1999.90;999.90;;;4.10;99.90;;;;;;5051195;28;20413;-74
2021/04/06 10:28:26;;;;;;;1999.90;999.90;;;4.10;99.90;;;;;;5051774;28;20390;-76
2021/04/06 10:30:56;;;;;;;1999.90;999.90;;;4.10;99.90;;;;;;5051365;28;20469;-75
2021/04/06 10:33:28;;;;;;;1999.90;999.90;;;4.00;99.90;;;;;;5050158;28;20243;-75
2021/04/06 10:35:59;;;;;;;1999.90;999.90;;;4.00;99.90;;;;;;5050327;28;20407;-74
2021/04/06 10:38:35;;;;;;;1999.90;999.90;;;4.20;99.90;;;;;;5050614;28;20534;-76
2021/04/06 10:41:28;;;;;;;1999.90;999.90;;;4.70;99.90;;;;;;5050421;28;20434;-75
2021/04/06 10:43:56;;;;;;;1999.90;999.90;;;5.10;99.90;;;;;;5049547;28;20805;-72
2021/04/06 10:46:24;;;;;;;1999.90;999.90;;;5.30;99.90;;;;;;5049965;28;20379;-75
2021/04/06 10:49:01;;;;;;;1999.90;999.90;;;5.30;99.90;;;;;;5050058;28;20445;-72
2021/04/06 10:51:29;;;;;;;1999.90;999.90;;;5.40;99.90;;;;;;5050822;28;20433;-73
2021/04/06 10:54:03;;;;;;;1999.90;999.90;;;5.60;99.90;;;;;;5050383;28;20444;-72
2021/04/06 10:56:38;;;;;;;1999.90;999.90;;;5.50;99.90;;;;;;5049985;28;20432;-73
2021/04/06 10:59:07;;;;;;;1999.90;999.90;;;5.60;99.90;;;;;;5050474;28;20400;-71
2021/04/06 11:01:47;;;;;;;1999.90;999.90;;;5.20;99.90;;;;;;5050338;28;20795;-72
2021/04/06 11:04:14;;;;;;;1999.90;999.90;;;5.10;99.90;;;;;;5049776;28;20406;-73
2021/04/06 11:06:43;;;;;;;1999.90;999.90;;;5.10;99.90;;;;;;5049986;28;20481;-72
2021/04/06 11:09:40;;;;;;;1999.90;999.90;;;5.20;99.90;;;;;;5050169;28;20446;-72
2021/04/06 11:12:09;;;;;;;1999.90;999.90;;;5.50;99.90;;;;;;5050112;28;21234;-72
2021/04/06 11:14:35;;;;;;;1999.90;999.90;;;5.80;99.90;;;;;;5049970;28;20809;-72
2021/04/06 11:17:05;;;;;;;1999.90;999.90;;;5.80;99.90;;;;;;5049140;28;20453;-71
2021/04/06 11:19:35;;;;;;;1999.90;999.90;;;5.70;99.90;;;;;;5050205;28;20406;-72
2021/04/06 11:22:04;;;;;;;1999.90;999.90;;;5.70;99.90;;;;;;5049536;28;20442;-72
2021/04/06 11:24:32;;;;;;;1999.90;999.90;;;5.60;99.90;;;;;;5049516;28;20829;-72
2021/04/06 11:26:59;;;;;;;1999.90;999.90;;;5.80;99.90;;;;;;5050128;28;20402;-70
2021/04/06 11:29:28;;;;;;;1999.90;999.90;;;5.90;99.90;;;;;;5050614;28;20422;-72
2021/04/06 11:31:56;;;;;;;1999.90;999.90;;;5.60;99.90;;;;;;5049379;28;20526;-74
2021/04/06 11:34:23;;;;;;;1999.90;999.90;;;5.00;99.90;;;;;;5050161;28;20406;-74
2021/04/06 11:36:49;;;;;;;1999.90;999.90;;;5.10;99.90;;;;;;5049855;28;20475;-74
2021/04/06 11:39:18;;;;;;;1999.90;999.90;;;5.40;99.90;;;;;;5049437;28;20402;-76
2021/04/06 11:41:48;;;;;;;1999.90;999.90;;;5.70;99.90;;;;;;5050025;28;20430;-75
2021/04/06 11:44:14;;;;;;;1999.90;999.90;;;5.90;99.90;;;;;;5050839;28;20845;-76
2021/04/06 11:46:40;;;;;;;1999.90;999.90;;;5.90;99.90;;;;;;5049619;28;20824;-75
2021/04/06 11:49:08;;;;;;;1999.90;999.90;;;5.80;99.90;;;;;;5049991;28;20428;-72
2021/04/06 11:51:34;;;;;;;1999.90;999.90;;;5.50;99.90;;;;;;5049658;28;20434;-70
2021/04/06 11:54:00;;;;;;;1999.90;999.90;;;5.20;99.90;;;;;;5051472;28;20417;-73
2021/04/06 11:56:26;;;;;;;1999.90;999.90;;;4.80;99.90;;;;;;5051396;28;20446;-68
2021/04/06 11:58:51;;;;;;;1999.90;999.90;;;4.70;99.90;;;;;;5054712;28;20405;-71
2021/04/06 12:01:17;;;;;;;1999.90;999.90;;;4.70;99.90;;;;;;5054053;28;20187;-74
2021/04/06 12:03:43;;;;;;;1999.90;999.90;;;5.10;99.90;;;;;;5054078;28;20164;-68
2021/04/06 12:06:09;;;;;;;1999.90;999.90;;;5.40;99.90;;;;;;5053348;28;20462;-72
2021/04/06 12:08:35;;;;;;;1999.90;999.90;;;5.20;99.90;;;;;;5053456;28;20426;-75
2021/04/06 12:11:01;;;;;;;1999.90;999.90;;;5.90;99.90;;;;;;5053357;28;20432;-75
2021/04/06 12:13:28;;;;;;;1999.90;999.90;;;7.00;99.90;;;;;;5053699;28;20160;-74
2021/04/06 12:15:53;;;;;;;1999.90;999.90;;;7.60;99.90;;;;;;5051597;28;20752;-74
2021/04/06 12:18:19;;;;;;;1999.90;999.90;;;8.00;99.90;;;;;;5053510;28;20455;-70
2021/04/06 12:20:45;;;;;;;1999.90;999.90;;;8.00;99.90;;;;;;5052774;28;20186;-72
2021/04/06 12:23:10;;;;;;;1999.90;999.90;;;7.50;99.90;;;;;;5053563;28;20171;-73